createdAt,value
2023-01-17T00:00:36.521Z,95884.09
2023-01-17T00:03:04.652Z,95867.97
2023-01-17T00:05:50.231Z,95876.69
2023-01-17T00:08:35.030Z,95863.22
2023-01-17T00:11:01.771Z,95862.84
2023-01-17T00:13:28.369Z,95854.25
2023-01-17T00:15:55.043Z,95851.03
2023-01-17T00:18:21.727Z,95850.41
2023-01-17T00:21:06.875Z,95852.75
2023-01-17T00:23:52.294Z,95852.81
2023-01-17T00:26:19.846Z,95855.66
2023-01-17T00:28:48.195Z,95847.22
2023-01-17T00:31:16.244Z,95846.47
2023-01-17T00:33:43.628Z,95855.81
2023-01-17T00:36:11.242Z,95857.84
2023-01-17T00:38:39.435Z,95854.06
2023-01-17T00:41:11.867Z,95847.72
2023-01-17T00:43:57.263Z,95858.59
2023-01-17T00:46:42.914Z,95850.59
2023-01-17T00:49:28.094Z,95850.75
2023-01-17T00:52:13.052Z,95862.00
2023-01-17T00:54:58.350Z,95863.59
2023-01-17T00:57:43.546Z,95866.09
2023-01-17T01:00:29.675Z,95864.09
2023-01-17T01:03:14.895Z,95868.00
2023-01-17T01:06:00.181Z,95863.69
2023-01-17T01:08:48.424Z,95872.50
2023-01-17T01:11:37.150Z,95871.91
2023-01-17T01:14:28.248Z,95873.22
2023-01-17T01:17:13.744Z,95870.06
2023-01-17T01:19:58.843Z,95871.06
2023-01-17T01:22:44.039Z,95874.59
2023-01-17T01:25:29.300Z,95870.31
2023-01-17T01:28:25.741Z,95866.38
2023-01-17T01:31:11.141Z,95866.66
2023-01-17T01:33:37.853Z,95869.06
2023-01-17T01:36:08.016Z,95866.72
2023-01-17T01:38:34.819Z,95863.44
2023-01-17T01:41:01.646Z,95867.59
2023-01-17T01:43:40.542Z,95864.69
2023-01-17T01:46:08.083Z,95861.53
2023-01-17T01:48:48.125Z,95855.66
2023-01-17T01:51:22.124Z,95854.59
2023-01-17T01:53:52.917Z,95863.56
2023-01-17T01:56:23.256Z,95859.41
2023-01-17T01:58:52.053Z,95855.38
2023-01-17T02:01:19.854Z,95851.09
2023-01-17T02:03:47.889Z,95857.06
2023-01-17T02:06:25.017Z,95859.94
2023-01-17T02:08:51.967Z,95866.28
2023-01-17T02:11:18.904Z,95863.03
2023-01-17T02:13:45.555Z,95868.72
2023-01-17T02:16:24.310Z,95859.09
2023-01-17T02:19:16.874Z,95867.06
2023-01-17T02:22:02.621Z,95865.03
2023-01-17T02:24:48.449Z,95862.59
2023-01-17T02:27:27.144Z,95865.03
2023-01-17T02:30:30.927Z,95872.84
2023-01-17T02:33:12.128Z,95867.75
2023-01-17T02:36:20.535Z,95868.75
2023-01-17T02:38:54.877Z,95867.13
2023-01-17T02:41:25.141Z,95866.94
2023-01-17T02:43:53.363Z,95869.38
2023-01-17T02:46:20.095Z,95871.97
2023-01-17T02:48:48.055Z,95870.41
2023-01-17T02:51:33.249Z,95877.72
2023-01-17T02:54:28.327Z,95877.75
2023-01-17T02:57:16.413Z,95886.63
2023-01-17T02:59:49.091Z,95878.88
2023-01-17T03:02:21.930Z,95894.25
2023-01-17T03:04:55.969Z,95898.34
2023-01-17T03:07:26.149Z,95899.78
2023-01-17T03:09:59.484Z,95904.34
2023-01-17T03:12:32.184Z,95901.94
2023-01-17T03:14:59.373Z,95905.03
2023-01-17T03:17:31.883Z,95915.03
2023-01-17T03:19:58.847Z,95916.50
2023-01-17T03:22:25.485Z,95912.63
2023-01-17T03:24:52.118Z,95920.44
2023-01-17T03:27:18.739Z,95924.34
2023-01-17T03:29:45.356Z,95921.69
2023-01-17T03:32:12.021Z,95923.94
2023-01-17T03:34:38.570Z,95927.63
2023-01-17T03:37:05.165Z,95930.50
2023-01-17T03:39:31.738Z,95939.09
2023-01-17T03:41:58.496Z,95936.66
2023-01-17T03:44:25.051Z,95931.91
2023-01-17T03:46:51.683Z,95941.97
2023-01-17T03:49:18.364Z,95943.59
2023-01-17T03:51:45.045Z,95953.84
2023-01-17T03:54:11.663Z,95949.09
2023-01-17T03:56:38.281Z,95950.53
2023-01-17T03:59:04.859Z,95946.41
2023-01-17T04:01:31.699Z,95956.22
2023-01-17T04:03:58.648Z,95962.00
2023-01-17T04:06:25.313Z,95964.00
2023-01-17T04:08:51.962Z,95962.59
2023-01-17T04:11:18.496Z,95965.41
2023-01-17T04:13:45.205Z,95969.31
2023-01-17T04:16:18.207Z,95975.47
2023-01-17T04:18:44.925Z,95976.69
2023-01-17T04:21:11.515Z,95983.22
2023-01-17T04:23:38.396Z,95979.53
2023-01-17T04:26:05.402Z,95982.41
2023-01-17T04:28:32.027Z,95984.44
2023-01-17T04:31:00.025Z,95986.91
2023-01-17T04:33:26.952Z,95994.28
2023-01-17T04:35:54.235Z,96011.25
2023-01-17T04:38:21.568Z,96004.28
2023-01-17T04:40:48.727Z,96006.13
2023-01-17T04:43:16.421Z,95990.56
2023-01-17T04:45:43.198Z,96021.69
2023-01-17T04:48:12.597Z,96023.31
2023-01-17T04:50:39.858Z,96028.81
2023-01-17T04:53:06.538Z,96027.00
2023-01-17T04:55:33.222Z,96033.09
2023-01-17T04:57:59.913Z,96042.34
2023-01-17T05:00:26.632Z,96039.25
2023-01-17T05:02:53.510Z,96046.22
2023-01-17T05:05:20.206Z,96047.03
2023-01-17T05:07:54.241Z,96046.38
2023-01-17T05:10:20.875Z,96055.22
2023-01-17T05:12:58.589Z,96058.50
2023-01-17T05:15:26.229Z,96061.75
2023-01-17T05:17:53.845Z,96065.03
2023-01-17T05:20:22.222Z,96057.03
2023-01-17T05:22:56.512Z,96051.94
2023-01-17T05:25:28.377Z,96063.63
2023-01-17T05:27:55.223Z,96066.28
2023-01-17T05:30:22.972Z,96068.34
2023-01-17T05:32:51.286Z,96065.66
2023-01-17T05:35:19.731Z,96061.97
2023-01-17T05:37:49.126Z,96069.59
2023-01-17T05:40:20.146Z,96073.84
2023-01-17T05:42:48.385Z,96074.22
2023-01-17T05:45:17.081Z,96069.72
2023-01-17T05:47:49.231Z,96075.88
2023-01-17T05:50:21.215Z,96077.88
2023-01-17T05:52:56.446Z,96081.97
2023-01-17T05:55:24.256Z,96078.69
2023-01-17T05:57:51.238Z,96085.84
2023-01-17T06:00:18.467Z,96091.56
2023-01-17T06:02:46.098Z,96106.50
2023-01-17T06:05:13.596Z,96100.97
2023-01-17T06:07:42.828Z,96102.00
2023-01-17T06:10:10.849Z,96105.88
2023-01-17T06:12:37.615Z,96104.41
2023-01-17T06:15:04.526Z,96108.28
2023-01-17T06:17:31.164Z,96105.63
2023-01-17T06:19:57.925Z,96105.38
2023-01-17T06:22:24.759Z,96100.88
2023-01-17T06:24:51.384Z,96108.00
2023-01-17T06:27:18.051Z,96116.13
2023-01-17T06:29:44.738Z,96114.50
2023-01-17T06:32:13.230Z,96115.72
2023-01-17T06:34:40.459Z,96129.38
2023-01-17T06:37:07.475Z,96125.66
2023-01-17T06:39:34.093Z,96122.38
2023-01-17T06:42:01.124Z,96123.38
2023-01-17T06:44:27.809Z,96125.41
2023-01-17T06:46:54.474Z,96134.59
2023-01-17T06:49:21.302Z,96134.03
2023-01-17T06:51:47.946Z,96137.88
2023-01-17T06:54:14.600Z,96149.88
2023-01-17T06:56:41.254Z,96153.56
2023-01-17T06:59:07.955Z,96153.91
2023-01-17T07:01:34.678Z,96157.38
2023-01-17T07:04:01.365Z,96162.50
2023-01-17T07:06:28.871Z,96171.50
2023-01-17T07:08:56.433Z,96168.00
2023-01-17T07:11:23.446Z,96181.13
2023-01-17T07:13:50.032Z,96170.47
2023-01-17T07:16:16.880Z,96179.06
2023-01-17T07:18:43.513Z,96181.94
2023-01-17T07:21:14.704Z,96182.69
2023-01-17T07:23:41.766Z,96196.19
2023-01-17T07:26:08.855Z,96189.84
2023-01-17T07:28:35.576Z,96188.38
2023-01-17T07:31:07.890Z,96185.28
2023-01-17T07:33:35.111Z,96190.94
2023-01-17T07:36:07.303Z,96186.84
2023-01-17T07:38:34.706Z,96191.69
2023-01-17T07:41:01.579Z,96184.47
2023-01-17T07:43:28.621Z,96191.91
2023-01-17T07:45:55.341Z,96198.31
2023-01-17T07:48:24.007Z,96194.00
2023-01-17T07:50:56.008Z,96194.22
2023-01-17T07:53:27.662Z,96202.81
2023-01-17T07:55:54.819Z,96201.78
2023-01-17T07:58:22.000Z,96199.69
2023-01-17T08:00:48.775Z,96204.00
2023-01-17T08:03:17.797Z,96213.16
2023-01-17T08:05:53.986Z,96217.19
2023-01-17T08:08:20.842Z,96222.63
2023-01-17T08:10:47.435Z,96227.72
2023-01-17T08:13:14.057Z,96225.91
2023-01-17T08:15:40.903Z,96222.69
2023-01-17T08:18:07.503Z,96227.84
2023-01-17T08:20:34.205Z,96227.47
2023-01-17T08:23:00.886Z,96235.44
2023-01-17T08:27:58.110Z,96234.53
2023-01-17T08:30:26.129Z,96241.47
2023-01-17T08:32:52.976Z,96235.88
2023-01-17T08:35:20.419Z,96242.41
2023-01-17T08:37:48.391Z,96249.69
2023-01-17T08:40:20.890Z,96245.50
2023-01-17T08:42:58.246Z,96244.50
2023-01-17T08:45:25.534Z,96254.91
2023-01-17T08:47:52.842Z,96264.19
2023-01-17T08:50:20.738Z,96272.88
2023-01-17T08:52:50.937Z,96272.59
2023-01-17T08:55:17.752Z,96288.72
2023-01-17T08:57:44.484Z,96291.38
2023-01-17T09:00:11.619Z,96294.88
2023-01-17T09:02:38.247Z,96301.41
2023-01-17T09:05:05.317Z,96296.44
2023-01-17T09:07:32.021Z,96303.34
2023-01-17T09:09:58.838Z,96301.88
2023-01-17T09:12:25.662Z,96303.50
2023-01-17T09:14:52.216Z,96309.66
2023-01-17T09:17:18.833Z,96305.25
2023-01-17T09:19:47.844Z,96318.47
2023-01-17T09:22:15.019Z,96323.88
2023-01-17T09:24:42.157Z,96325.22
2023-01-17T09:27:08.902Z,96329.72
2023-01-17T09:29:35.716Z,96339.34
2023-01-17T09:32:02.377Z,96327.81
2023-01-17T09:34:30.451Z,96331.75
2023-01-17T09:36:57.611Z,96330.75
2023-01-17T09:39:24.479Z,96328.22
2023-01-17T09:42:19.828Z,96321.78
2023-01-17T09:44:51.592Z,96338.88
2023-01-17T09:47:40.362Z,96332.97
2023-01-17T09:50:13.424Z,96328.38
2023-01-17T09:52:40.103Z,96336.84
2023-01-17T09:55:08.184Z,96336.63
2023-01-17T09:57:34.921Z,96333.22
2023-01-17T10:00:32.602Z,96331.13
2023-01-17T10:03:17.645Z,96338.44
2023-01-17T10:05:58.276Z,96345.47
2023-01-17T10:08:42.558Z,96336.59
2023-01-17T10:11:37.157Z,96348.94
2023-01-17T10:14:20.315Z,96338.53
2023-01-17T10:17:02.204Z,96342.59
2023-01-17T10:19:37.617Z,96342.78
2023-01-17T10:22:16.586Z,96343.69
2023-01-17T10:24:43.119Z,96342.97
2023-01-17T10:27:21.890Z,96332.25
2023-01-17T10:29:49.881Z,96344.84
2023-01-17T10:32:16.795Z,96344.38
2023-01-17T10:34:51.823Z,96345.03
2023-01-17T10:37:31.514Z,96355.56
2023-01-17T10:40:13.985Z,96350.63
2023-01-17T10:42:52.298Z,96364.94
2023-01-17T10:45:25.621Z,96360.66
2023-01-17T10:48:02.132Z,96366.69
2023-01-17T10:50:33.303Z,96377.22
2023-01-17T10:53:43.428Z,96373.13
2023-01-17T10:56:18.052Z,96375.38
2023-01-17T10:58:48.077Z,96378.06
2023-01-17T11:01:20.599Z,96380.81
2023-01-17T11:03:51.321Z,96376.13
2023-01-17T11:06:22.201Z,96377.44
2023-01-17T11:08:56.430Z,96385.94
2023-01-17T11:11:31.849Z,96381.53
2023-01-17T11:14:06.376Z,96377.22
2023-01-17T11:16:33.879Z,96376.03
2023-01-17T11:19:10.761Z,96377.59
2023-01-17T11:21:40.035Z,96371.16
2023-01-17T11:24:17.679Z,96362.41
2023-01-17T11:26:49.502Z,96352.97
2023-01-17T11:29:37.121Z,96363.75
2023-01-17T11:32:26.008Z,96354.81
2023-01-17T11:35:15.455Z,96359.50
2023-01-17T11:37:56.745Z,96355.41
2023-01-17T11:40:33.333Z,96350.38
2023-01-17T11:43:01.782Z,96362.34
2023-01-17T11:45:31.717Z,96367.66
2023-01-17T11:48:12.683Z,96357.06
2023-01-17T11:50:43.947Z,96366.22
2023-01-17T11:53:24.723Z,96360.94
2023-01-17T11:55:54.108Z,96367.66
2023-01-17T11:58:21.870Z,96363.13
2023-01-17T12:01:01.337Z,96365.84
2023-01-17T12:04:04.355Z,96365.47
2023-01-17T12:06:57.893Z,96363.16
2023-01-17T12:09:45.152Z,96361.47
2023-01-17T12:12:42.233Z,96365.16
2023-01-17T12:15:30.159Z,96367.03
2023-01-17T12:18:32.162Z,96368.28
2023-01-17T12:21:20.645Z,96374.25
2023-01-17T12:24:19.531Z,96369.59
2023-01-17T12:26:58.849Z,96366.09
2023-01-17T12:29:43.022Z,96373.34
2023-01-17T12:32:09.636Z,96382.34
2023-01-17T12:34:52.491Z,96372.41
2023-01-17T12:37:19.209Z,96377.47
2023-01-17T12:40:01.840Z,96367.75
2023-01-17T12:42:34.693Z,96370.22
2023-01-17T12:45:11.953Z,96373.75
2023-01-17T12:47:45.273Z,96380.97
2023-01-17T12:50:32.493Z,96380.97
2023-01-17T12:53:18.833Z,96381.88
2023-01-17T12:55:57.280Z,96383.78
2023-01-17T12:58:28.853Z,96387.09
2023-01-17T13:01:02.859Z,96384.16
2023-01-17T13:03:57.611Z,96388.75
2023-01-17T13:06:50.834Z,96387.75
2023-01-17T13:09:22.975Z,96398.22
2023-01-17T13:11:56.113Z,96395.75
2023-01-17T13:14:22.841Z,96396.75
2023-01-17T13:16:58.690Z,96397.31
2023-01-17T13:19:50.338Z,96405.84
2023-01-17T13:22:21.789Z,96400.03
2023-01-17T13:24:57.530Z,96406.31
2023-01-17T13:27:58.222Z,96407.69
2023-01-17T13:30:30.806Z,96417.97
2023-01-17T13:33:07.255Z,96414.56
2023-01-17T13:35:58.092Z,96414.94
2023-01-17T13:38:34.434Z,96414.94
2023-01-17T13:41:36.846Z,96421.28
2023-01-17T13:44:22.092Z,96419.50
2023-01-17T13:47:04.247Z,96423.66
2023-01-17T13:49:34.164Z,96431.06
2023-01-17T13:52:20.695Z,96425.34
2023-01-17T13:54:59.123Z,96427.63
2023-01-17T13:57:27.913Z,96439.03
2023-01-17T13:59:57.404Z,96438.13
2023-01-17T14:02:33.257Z,96440.00
2023-01-17T14:05:21.239Z,96436.91
2023-01-17T14:07:55.325Z,96441.66
2023-01-17T14:10:30.829Z,96440.50
2023-01-17T14:12:58.920Z,96443.03
2023-01-17T14:15:28.223Z,96440.53
2023-01-17T14:17:58.044Z,96443.69
2023-01-17T14:20:36.311Z,96445.56
2023-01-17T14:23:25.789Z,96443.22
2023-01-17T14:25:53.130Z,96453.22
2023-01-17T14:28:26.992Z,96443.63
2023-01-17T14:30:56.311Z,96445.66
2023-01-17T14:33:28.359Z,96436.63
2023-01-17T14:35:58.410Z,96434.50
2023-01-17T14:38:27.929Z,96438.47
2023-01-17T14:40:57.981Z,96445.50
2023-01-17T14:43:28.588Z,96441.13
2023-01-17T14:46:14.107Z,96449.88
2023-01-17T14:48:41.604Z,96442.34
2023-01-17T14:51:20.083Z,96448.91
2023-01-17T14:54:18.365Z,96450.44
2023-01-17T14:56:45.115Z,96463.41
2023-01-17T14:59:17.180Z,96454.31
2023-01-17T15:02:06.021Z,96452.38
2023-01-17T15:04:39.033Z,96453.59
2023-01-17T15:07:06.152Z,96459.56
2023-01-17T15:09:37.441Z,96467.84
2023-01-17T15:12:05.060Z,96472.25
2023-01-17T15:14:36.741Z,96466.56
2023-01-17T15:17:20.226Z,96476.50
2023-01-17T15:19:57.560Z,96476.84
2023-01-17T15:22:26.051Z,96482.84
2023-01-17T15:24:53.867Z,96488.59
2023-01-17T15:27:21.210Z,96487.31
2023-01-17T15:29:48.291Z,96483.13
2023-01-17T15:32:24.076Z,96487.88
2023-01-17T15:34:52.168Z,96491.00
2023-01-17T15:37:32.462Z,96489.81
2023-01-17T15:40:25.636Z,96490.78
2023-01-17T15:42:57.576Z,96482.88
2023-01-17T15:45:33.461Z,96482.75
2023-01-17T15:48:40.531Z,96490.03
2023-01-17T15:51:09.373Z,96488.34
2023-01-17T15:53:38.780Z,96498.41
2023-01-17T15:56:32.204Z,96499.94
2023-01-17T15:59:36.456Z,96498.53
2023-01-17T16:02:03.356Z,96498.19
2023-01-17T16:04:37.137Z,96502.50
2023-01-17T16:07:21.629Z,96503.75
2023-01-17T16:09:48.967Z,96500.13
2023-01-17T16:12:15.764Z,96492.53
2023-01-17T16:15:02.546Z,96491.75
2023-01-17T16:17:30.310Z,96485.94
2023-01-17T16:19:57.433Z,96490.75
2023-01-17T16:22:24.120Z,96487.41
2023-01-17T16:24:50.863Z,96495.03
2023-01-17T16:27:17.472Z,96498.16
2023-01-17T16:29:44.831Z,96496.47
2023-01-17T16:32:11.534Z,96496.09
2023-01-17T16:34:38.142Z,96484.72
2023-01-17T16:37:04.856Z,96496.97
2023-01-17T16:39:31.722Z,96495.53
2023-01-17T16:42:02.573Z,96499.13
2023-01-17T16:44:30.771Z,96495.47
2023-01-17T16:47:01.970Z,96489.53
2023-01-17T16:49:32.368Z,96493.38
2023-01-17T16:51:59.647Z,96495.69
2023-01-17T16:54:27.127Z,96491.69
2023-01-17T16:56:53.929Z,96484.31
2023-01-17T16:59:20.623Z,96480.84
2023-01-17T17:01:49.222Z,96481.34
2023-01-17T17:04:16.052Z,96478.28
2023-01-17T17:06:42.691Z,96481.91
2023-01-17T17:09:09.323Z,96480.56
2023-01-17T17:11:35.960Z,96485.81
2023-01-17T17:14:03.151Z,96487.94
2023-01-17T17:16:30.589Z,96486.50
2023-01-17T17:19:06.186Z,96487.47
2023-01-17T17:21:35.014Z,96481.88
2023-01-17T17:24:02.518Z,96484.75
2023-01-17T17:26:36.766Z,96479.91
2023-01-17T17:29:05.563Z,96473.25
2023-01-17T17:31:32.731Z,96472.84
2023-01-17T17:34:00.861Z,96482.34
2023-01-17T17:36:27.808Z,96478.72
2023-01-17T17:38:55.947Z,96489.28
2023-01-17T17:41:25.673Z,96498.50
2023-01-17T17:43:52.583Z,96502.28
2023-01-17T17:46:21.422Z,96501.97
2023-01-17T17:48:48.725Z,96502.56
2023-01-17T17:51:31.486Z,96500.34
2023-01-17T17:54:00.962Z,96500.75
2023-01-17T17:56:29.020Z,96501.75
2023-01-17T17:58:56.678Z,96505.59
2023-01-17T18:01:24.094Z,96507.91
2023-01-17T18:03:52.287Z,96496.88
2023-01-17T18:06:19.584Z,96495.50
2023-01-17T18:08:46.938Z,96503.28
2023-01-17T18:11:18.544Z,96508.00
2023-01-17T18:13:47.754Z,96507.19
2023-01-17T18:16:16.117Z,96515.09
2023-01-17T18:18:48.867Z,96514.53
2023-01-17T18:21:23.581Z,96502.63
2023-01-17T18:23:54.541Z,96499.69
2023-01-17T18:26:27.003Z,96489.59
2023-01-17T18:28:55.010Z,96502.34
2023-01-17T18:31:25.138Z,96502.75
2023-01-17T18:33:52.271Z,96508.06
2023-01-17T18:36:19.551Z,96511.38
2023-01-17T18:38:47.544Z,96514.97
2023-01-17T18:41:17.772Z,96510.66
2023-01-17T18:43:44.687Z,96507.50
2023-01-17T18:46:12.039Z,96507.22
2023-01-17T18:48:39.111Z,96516.50
2023-01-17T18:51:17.685Z,96515.41
2023-01-17T18:53:46.579Z,96521.47
2023-01-17T18:56:15.756Z,96515.69
2023-01-17T18:58:45.426Z,96519.13
2023-01-17T19:01:20.716Z,96517.59
2023-01-17T19:03:49.537Z,96523.56
2023-01-17T19:06:32.431Z,96527.16
2023-01-17T19:08:59.412Z,96526.47
2023-01-17T19:11:27.542Z,96526.19
2023-01-17T19:13:54.488Z,96525.63
2023-01-17T19:16:24.706Z,96525.63
2023-01-17T19:18:52.361Z,96527.84
2023-01-17T19:21:22.285Z,96520.78
2023-01-17T19:23:49.179Z,96513.00
2023-01-17T19:26:17.345Z,96528.41
2023-01-17T19:28:45.682Z,96532.13
2023-01-17T19:31:15.112Z,96530.16
2023-01-17T19:33:44.176Z,96524.50
2023-01-17T19:36:13.879Z,96533.34
2023-01-17T19:38:40.547Z,96528.50
2023-01-17T19:41:14.922Z,96535.00
2023-01-17T19:43:42.457Z,96529.34
2023-01-17T19:46:10.633Z,96539.56
2023-01-17T19:48:38.902Z,96535.16
2023-01-17T19:51:13.624Z,96535.72
2023-01-17T19:53:41.510Z,96535.19
2023-01-17T19:56:09.537Z,96542.34
2023-01-17T19:58:37.031Z,96543.06
2023-01-17T20:01:14.818Z,96546.41
2023-01-17T20:03:44.125Z,96553.19
2023-01-17T20:06:13.336Z,96551.53
2023-01-17T20:08:40.664Z,96553.44
2023-01-17T20:11:14.629Z,96544.88
2023-01-17T20:13:42.321Z,96555.56
2023-01-17T20:16:11.615Z,96560.94
2023-01-17T20:18:38.467Z,96566.63
2023-01-17T20:21:10.771Z,96567.88
2023-01-17T20:23:39.172Z,96572.13
2023-01-17T20:26:06.369Z,96570.88
2023-01-17T20:28:34.905Z,96578.75
2023-01-17T20:31:21.860Z,96580.13
2023-01-17T20:33:50.364Z,96588.94
2023-01-17T20:36:18.348Z,96584.44
2023-01-17T20:38:46.133Z,96581.13
2023-01-17T20:41:19.830Z,96593.34
2023-01-17T20:43:48.951Z,96596.25
2023-01-17T20:46:18.636Z,96595.97
2023-01-17T20:48:52.793Z,96589.88
2023-01-17T20:51:20.240Z,96593.78
2023-01-17T20:53:51.739Z,96597.50
2023-01-17T20:56:19.059Z,96590.31
2023-01-17T20:58:46.032Z,96592.22
2023-01-17T21:01:20.021Z,96592.66
2023-01-17T21:03:51.174Z,96591.94
2023-01-17T21:06:19.006Z,96594.84
2023-01-17T21:08:46.545Z,96590.00
2023-01-17T21:11:15.522Z,96593.00
2023-01-17T21:13:42.760Z,96588.88
2023-01-17T21:16:11.749Z,96590.00
2023-01-17T21:18:38.367Z,96581.16
2023-01-17T21:21:07.849Z,96579.63
2023-01-17T21:23:35.558Z,96578.53
2023-01-17T21:26:02.230Z,96587.69
2023-01-17T21:28:33.264Z,96583.78
2023-01-17T21:31:00.031Z,96583.63
2023-01-17T21:33:29.233Z,96590.13
2023-01-17T21:36:05.368Z,96581.53
2023-01-17T21:38:32.806Z,96584.72
2023-01-17T21:40:59.499Z,96590.53
2023-01-17T21:43:26.363Z,96576.72
2023-01-17T21:45:53.456Z,96573.97
2023-01-17T21:48:20.336Z,96580.03
2023-01-17T21:50:47.419Z,96585.31
2023-01-17T21:53:14.133Z,96582.94
2023-01-17T21:55:59.358Z,96583.75
2023-01-17T21:58:44.047Z,96585.84
2023-01-17T22:01:17.994Z,96570.88
2023-01-17T22:03:57.932Z,96563.81
2023-01-17T22:06:27.740Z,96566.97
2023-01-17T22:08:54.671Z,96560.63
2023-01-17T22:11:23.707Z,96562.69
2023-01-17T22:13:50.902Z,96550.50
2023-01-17T22:16:20.469Z,96545.13
2023-01-17T22:18:47.665Z,96541.25
2023-01-17T22:21:22.735Z,96543.63
2023-01-17T22:23:54.660Z,96542.50
2023-01-17T22:26:23.645Z,96554.41
2023-01-17T22:28:50.509Z,96542.97
2023-01-17T22:31:20.795Z,96545.00
2023-01-17T22:33:51.798Z,96540.03
2023-01-17T22:36:18.493Z,96535.59
2023-01-17T22:38:45.325Z,96534.63
2023-01-17T22:41:16.027Z,96528.81
2023-01-17T22:43:45.322Z,96523.69
2023-01-17T22:46:14.577Z,96520.22
2023-01-17T22:48:42.090Z,96522.72
2023-01-17T22:51:11.230Z,96523.69
2023-01-17T22:53:42.997Z,96518.72
2023-01-17T22:56:14.939Z,96516.22
2023-01-17T22:58:44.699Z,96516.63
2023-01-17T23:01:14.445Z,96515.25
2023-01-17T23:03:41.873Z,96509.00
2023-01-17T23:06:13.167Z,96504.97
2023-01-17T23:08:42.266Z,96505.53
2023-01-17T23:11:39.766Z,96498.28
2023-01-17T23:14:12.121Z,96489.16
2023-01-17T23:17:01.159Z,96483.41
2023-01-17T23:19:31.534Z,96474.84
2023-01-17T23:22:18.612Z,96464.84
2023-01-17T23:24:55.775Z,96465.97
2023-01-17T23:27:56.059Z,96452.47
2023-01-17T23:30:35.376Z,96455.31
2023-01-17T23:33:10.019Z,96464.72
2023-01-17T23:35:42.077Z,96463.72
2023-01-17T23:38:28.513Z,96467.16
2023-01-17T23:41:22.486Z,96465.16
2023-01-17T23:43:53.718Z,96472.91
2023-01-17T23:46:20.875Z,96461.81
2023-01-17T23:48:49.138Z,96470.88
2023-01-17T23:51:15.848Z,96477.22
2023-01-17T23:53:42.731Z,96472.16
2023-01-17T23:56:19.665Z,96467.22
2023-01-17T23:58:46.442Z,96464.63
